Time;durP1;ratioP1;P1;durP2;ratioP2;P2;SDS_P1;SDS_P2;PMS_P1;PMS_P2;Temp;Humidity;BMP_temperature;BMP_pressure;BME280_temperature;BME280_humidity;BME280_pressure;Samples;Min_cycle;Max_cycle;Signal;HPM_P1;HPM_P2
2022/06/05 00:01:36;;;;;;;4.75;2.80;;;;;;;22.34;70.43;99745.50;5024309;28;20112;-87
2022/06/05 00:04:27;;;;;;;3.67;1.95;;;;;;;22.22;70.99;99747.09;5020796;28;20053;-90
2022/06/05 00:06:59;;;;;;;3.60;1.73;;;;;;;22.17;71.18;99754.56;5026042;28;20030;-87
2022/06/05 00:09:27;;;;;;;3.47;2.20;;;;;;;22.10;71.98;99747.84;5027004;28;20037;-88
2022/06/05 00:12:02;;;;;;;4.97;3.58;;;;;;;21.99;72.50;99727.88;5027093;28;20043;-87
2022/06/05 00:14:27;;;;;;;4.55;2.65;;;;;;;22.22;72.94;99743.53;5016867;28;20148;-91
2022/06/05 00:16:53;;;;;;;3.95;2.90;;;;;;;22.06;74.05;99736.44;5007179;28;20113;-87
2022/06/05 00:19:18;;;;;;;4.05;2.30;;;;;;;22.06;74.44;99733.75;5006774;28;20496;-87
2022/06/05 00:21:44;;;;;;;4.40;3.10;;;;;;;22.18;73.52;99726.72;5026824;28;20507;-87
2022/06/05 00:24:10;;;;;;;3.10;2.00;;;;;;;22.48;73.24;99758.91;5025933;28;20038;-87
2022/06/05 00:26:36;;;;;;;4.50;2.75;;;;;;;22.54;73.05;99754.97;5026217;28;20025;-87
2022/06/05 00:29:35;;;;;;;2.75;2.40;;;;;;;22.38;73.45;99746.16;5026716;28;20487;-87
2022/06/05 00:32:15;;;;;;;7.32;2.33;;;;;;;22.24;74.17;99738.94;5025989;28;20048;-85
2022/06/05 00:34:42;;;;;;;3.03;2.08;;;;;;;22.27;74.50;99758.38;5024833;28;20037;-86
2022/06/05 00:37:34;;;;;;;3.28;2.75;;;;;;;22.25;74.32;99746.88;5026187;28;20029;-85
2022/06/05 00:40:12;;;;;;;4.72;4.15;;;;;;;22.23;75.17;99761.38;5025958;28;20049;-86
2022/06/05 00:42:37;;;;;;;2.63;2.15;;;;;;;22.14;75.50;99761.00;5026062;28;20030;-86
2022/06/05 00:45:09;;;;;;;6.43;2.17;;;;;;;21.87;74.94;99700.94;5014464;28;20088;-86
2022/06/05 00:47:35;;;;;;;4.10;2.35;;;;;;;22.15;74.81;99740.34;5009579;28;20033;-86
2022/06/05 00:50:10;;;;;;;2.58;2.03;;;;;;;22.22;74.37;99736.34;5025362;28;20072;-87
2022/06/05 00:52:38;;;;;;;3.97;1.98;;;;;;;22.34;74.09;99758.94;5024834;28;20073;-87
2022/06/05 00:55:05;;;;;;;3.60;2.28;;;;;;;22.15;74.68;99745.72;5026141;28;20049;-88
2022/06/05 00:57:33;;;;;;;4.28;3.00;;;;;;;22.25;74.26;99746.88;5024976;28;20037;-86
2022/06/05 01:00:01;;;;;;;3.17;2.15;;;;;;;22.15;74.40;99749.28;5025971;28;20037;-86
2022/06/05 01:02:28;;;;;;;4.53;2.83;;;;;;;22.16;75.04;99756.38;5026024;28;20481;-86
2022/06/05 01:04:54;;;;;;;4.45;2.78;;;;;;;22.11;75.29;99755.81;5025639;28;20040;-88
2022/06/05 01:07:21;;;;;;;4.85;2.95;;;;;;;22.10;74.91;99740.63;5025994;28;20491;-87
2022/06/05 01:09:48;;;;;;;3.40;2.03;;;;;;;22.10;74.65;99731.72;5025171;28;20072;-87
2022/06/05 01:12:44;;;;;;;3.60;2.35;;;;;;;22.14;74.29;99739.50;5026309;28;20116;-87
2022/06/05 01:15:10;;;;;;;3.50;2.40;;;;;;;22.25;74.67;99746.03;5010867;28;20038;-86
2022/06/05 01:17:39;;;;;;;16.27;3.38;;;;;;;22.20;74.45;99746.31;5006128;28;20104;-87
2022/06/05 01:20:34;;;;;;;5.38;2.78;;;;;;;22.28;73.96;99743.16;5016344;28;20033;-87
2022/06/05 01:23:12;;;;;;;6.18;2.67;;;;;;;22.24;73.94;99739.78;5024967;28;20056;-88
2022/06/05 01:26:00;;;;;;;9.32;3.40;;;;;;;22.17;73.86;99725.03;5025764;28;20121;-86
2022/06/05 01:28:34;;;;;;;6.63;3.50;;;;;;;22.18;73.85;99724.03;5024660;28;20041;-87
2022/06/05 01:31:13;;;;;;;6.22;2.45;;;;;;;22.30;73.51;99739.44;5025416;28;20522;-87
2022/06/05 01:33:51;;;;;;;4.47;2.42;;;;;;;22.42;73.35;99761.97;5025216;28;20504;-87
2022/06/05 01:36:35;;;;;;;5.50;3.38;;;;;;;22.23;73.33;99743.44;5023778;28;20057;-86
2022/06/05 01:39:06;;;;;;;4.30;1.87;;;;;;;22.29;73.63;99763.66;5025955;28;20142;-86
2022/06/05 01:41:54;;;;;;;4.32;2.50;;;;;;;22.17;73.73;99749.19;5026475;28;20276;-87
2022/06/05 01:44:42;;;;;;;4.15;3.22;;;;;;;22.12;73.79;99737.84;5027540;28;20120;-87
2022/06/05 01:47:18;;;;;;;4.38;2.92;;;;;;;22.23;73.67;99748.81;5028532;28;20029;-87
2022/06/05 01:50:10;;;;;;;5.13;2.15;;;;;;;22.00;74.20;99756.47;5028210;28;20037;-86
2022/06/05 01:52:43;;;;;;;4.28;3.22;;;;;;;22.07;74.33;99762.31;5028443;28;20553;-86
2022/06/05 01:55:21;;;;;;;3.92;2.25;;;;;;;22.12;74.04;99767.41;5027678;28;20053;-86
2022/06/05 01:57:49;;;;;;;3.22;2.20;;;;;;;21.94;73.88;99738.06;5028794;28;20875;-86
2022/06/05 02:00:19;;;;;;;3.63;2.05;;;;;;;22.06;73.77;99759.72;5028411;28;20033;-86
2022/06/05 02:03:06;;;;;;;2.92;1.92;;;;;;;22.17;73.19;99765.31;5029101;28;20554;-87
2022/06/05 02:05:43;;;;;;;5.00;2.92;;;;;;;21.96;73.17;99741.50;5029492;28;20543;-87
2022/06/05 02:08:28;;;;;;;2.65;1.67;;;;;;;22.00;73.75;99743.03;5029468;28;20463;-88
2022/06/05 02:11:04;;;;;;;4.05;2.33;;;;;;;21.93;73.55;99738.16;5030389;28;20103;-87
2022/06/05 02:13:30;;;;;;;;;;;;;;;21.99;73.52;99756.56;5029052;28;20038;-86
2022/06/05 02:15:55;;;;;;;1.75;1.58;;;;;;;21.94;73.51;99732.69;5029323;28;19963;-87
2022/06/05 02:18:22;;;;;;;4.10;2.63;;;;;;;22.02;73.50;99750.16;5030145;28;20766;-86
2022/06/05 02:20:48;;;;;;;4.63;2.40;;;;;;;21.92;73.41;99723.88;5029026;28;20044;-86
2022/06/05 02:23:21;;;;;;;4.43;2.35;;;;;;;22.05;73.28;99749.97;5029035;28;20051;-87
2022/06/05 02:25:47;;;;;;;3.95;3.10;;;;;;;22.07;73.24;99753.41;5029021;28;20033;-88
2022/06/05 02:28:16;;;;;;;5.22;2.47;;;;;;;21.94;73.28;99737.19;5029064;28;20025;-86
2022/06/05 02:31:00;;;;;;;3.47;2.55;;;;;;;22.04;73.27;99742.84;5028550;28;20061;-87
2022/06/05 02:33:56;;;;;;;3.73;2.17;;;;;;;21.97;73.22;99748.59;5028944;28;20037;-87
2022/06/05 02:36:49;;;;;;;4.55;2.40;;;;;;;21.95;73.17;99745.16;5028311;28;20503;-88
2022/06/05 02:39:56;;;;;;;6.75;2.45;;;;;;;21.96;72.99;99744.19;5029085;28;20043;-86
2022/06/05 02:42:35;;;;;;;3.63;2.35;;;;;;;21.91;73.26;99735.56;5026227;28;20211;-87
2022/06/05 02:45:17;;;;;;;3.40;2.22;;;;;;;21.98;73.15;99750.34;5025316;28;20052;-87
2022/06/05 02:47:48;;;;;;;4.40;2.35;;;;;;;21.97;73.32;99745.06;5019103;28;20049;-88
2022/06/05 02:50:26;;;;;;;6.88;2.83;;;;;;;21.96;73.49;99749.56;5027426;28;20088;-87
2022/06/05 02:52:58;;;;;;;4.80;2.80;;;;;;;21.88;73.56;99738.44;5027349;28;20510;-89
2022/06/05 02:55:24;;;;;;;4.28;2.25;;;;;;;21.77;74.11;99751.66;5028302;28;20136;-88
2022/06/05 02:57:49;;;;;;;4.47;2.63;;;;;;;21.67;73.02;99748.63;5028449;28;20167;-87
2022/06/05 03:00:23;;;;;;;5.15;3.00;;;;;;;21.55;73.22;99744.00;5028911;28;20030;-88
2022/06/05 03:05:34;;;;;;;4.03;2.28;;;;;;;21.60;72.87;99734.72;5028446;28;20118;-88
2022/06/05 03:08:00;;;;;;;4.32;2.45;;;;;;;21.77;73.14;99760.56;5027667;28;20037;-88
2022/06/05 03:10:26;;;;;;;2.80;1.65;;;;;;;21.47;74.33;99736.38;5029962;28;20427;-85
2022/06/05 03:12:52;;;;;;;4.75;2.63;;;;;;;21.42;75.38;99746.53;5029422;28;20033;-87
2022/06/05 03:15:17;;;;;;;4.03;2.70;;;;;;;21.43;75.52;99743.75;5023096;28;20036;-87
2022/06/05 03:17:44;;;;;;;5.63;3.60;;;;;;;21.43;76.23;99748.28;5028567;28;20029;-87
2022/06/05 03:20:12;;;;;;;6.18;2.22;;;;;;;21.14;76.42;99732.06;5029512;28;20034;-87
2022/06/05 03:22:38;;;;;;;4.07;2.20;;;;;;;21.33;76.15;99763.16;5028357;28;20033;-91
2022/06/05 03:25:04;;;;;;;6.15;2.85;;;;;;;21.12;75.75;99733.97;5029295;28;20037;-88
2022/06/05 03:27:31;;;;;;;5.05;3.15;;;;;;;21.08;75.90;99719.84;5027818;28;20045;-90
2022/06/05 03:29:57;;;;;;;3.95;2.88;;;;;;;21.13;76.05;99738.38;5029477;28;20540;-89
2022/06/05 03:32:24;;;;;;;7.90;3.63;;;;;;;21.04;77.06;99736.25;5027524;28;20041;-89
2022/06/05 03:34:49;;;;;;;4.65;2.78;;;;;;;20.92;77.97;99749.38;5028801;28;20029;-90
2022/06/05 03:37:15;;;;;;;3.47;2.80;;;;;;;20.78;79.39;99757.34;5027133;28;20091;-90
2022/06/05 03:39:40;;;;;;;4.00;3.05;;;;;;;20.80;80.25;99760.81;5027765;28;20095;-88
2022/06/05 03:42:07;;;;;;;8.68;3.00;;;;;;;20.88;79.58;99763.94;5028458;28;20052;-90
2022/06/05 03:44:43;;;;;;;3.83;2.75;;;;;;;20.60;79.94;99718.16;5028904;28;20037;-90
2022/06/05 03:47:10;;;;;;;5.15;3.15;;;;;;;20.85;78.75;99726.56;5028573;28;20033;-89
2022/06/05 03:49:36;;;;;;;4.55;3.05;;;;;;;20.86;79.11;99739.00;5028608;28;20037;-89
2022/06/05 03:52:06;;;;;;;5.68;4.43;;;;;;;20.92;80.02;99744.03;5027317;28;20075;-88
2022/06/05 03:54:33;;;;;;;5.88;3.50;;;;;;;21.20;78.86;99742.44;5028892;28;20083;-90
2022/06/05 03:57:00;;;;;;;6.78;3.08;;;;;;;21.32;77.02;99702.41;5004651;28;20057;-88
2022/06/05 03:59:25;;;;;;;6.43;3.20;;;;;;;21.35;77.54;99738.00;5038285;28;20037;-88
2022/06/05 04:01:51;;;;;;;4.15;2.92;;;;;;;21.52;77.37;99749.56;5044642;28;20037;-88
2022/06/05 04:04:16;;;;;;;3.95;2.75;;;;;;;21.56;77.23;99727.81;5050583;28;20112;-89
2022/06/05 04:06:42;;;;;;;5.20;3.38;;;;;;;21.52;77.31;99738.81;5059966;28;20036;-90
2022/06/05 04:09:09;;;;;;;4.95;3.28;;;;;;;21.59;76.55;99711.53;5040878;28;20426;-89
2022/06/05 04:11:36;;;;;;;5.28;3.65;;;;;;;21.69;77.02;99694.84;5031416;28;20082;-90
2022/06/05 04:14:03;;;;;;;4.82;3.28;;;;;;;22.22;76.20;99730.97;5030904;28;20114;-91
2022/06/05 04:16:31;;;;;;;4.80;2.55;;;;;;;22.18;76.47;99708.81;5027899;28;20491;-92
2022/06/05 04:18:59;;;;;;;6.35;3.08;;;;;;;22.56;74.39;99725.31;5047895;28;20040;-89
2022/06/05 04:21:30;;;;;;;4.45;2.60;;;;;;;22.55;74.16;99691.31;5048398;28;20040;-90
2022/06/05 04:23:57;;;;;;;4.03;2.92;;;;;;;22.63;74.21;99703.31;5046622;28;20033;-89
2022/06/05 04:26:26;;;;;;;4.38;3.13;;;;;;;22.50;74.50;99713.97;5045954;28;20029;-90
2022/06/05 04:28:54;;;;;;;6.32;3.70;;;;;;;22.63;74.83;99732.00;5046137;28;20087;-89
2022/06/05 04:31:33;;;;;;;4.80;4.30;;;;;;;23.03;73.18;99730.28;5046994;28;20037;-89
2022/06/05 04:34:03;;;;;;;5.80;3.83;;;;;;;22.94;75.14;99730.88;5046173;28;20421;-89
2022/06/05 04:36:29;;;;;;;7.65;3.40;;;;;;;22.91;74.46;99692.56;5047280;28;20049;-89
2022/06/05 04:38:54;;;;;;;4.72;3.50;;;;;;;23.45;73.59;99710.50;5047910;28;20033;-91
2022/06/05 04:41:21;;;;;;;6.40;3.50;;;;;;;23.51;73.25;99704.69;5047272;28;20570;-90
2022/06/05 04:43:48;;;;;;;6.35;4.05;;;;;;;23.49;73.47;99653.66;5047445;28;20071;-90
2022/06/05 04:46:13;;;;;;;4.05;2.88;;;;;;;23.78;75.12;99693.84;5047127;28;20036;-89
2022/06/05 04:48:38;;;;;;;9.13;5.18;;;;;;;24.21;73.92;99719.63;5048018;28;20056;-90
2022/06/05 04:51:09;;;;;;;5.43;3.63;;;;;;;24.50;69.87;99685.16;5048010;28;20059;-90
2022/06/05 04:53:35;;;;;;;5.93;3.45;;;;;;;24.90;67.77;99713.75;5043422;28;20041;-91
2022/06/05 04:56:07;;;;;;;4.53;3.00;;;;;;;25.09;66.21;99724.88;5041828;28;20045;-91
2022/06/05 04:58:33;;;;;;;6.68;3.45;;;;;;;25.37;65.98;99729.09;5046934;28;20033;-90
2022/06/05 05:00:59;;;;;;;4.82;3.55;;;;;;;25.55;65.40;99726.81;5046853;28;20090;-91
2022/06/05 05:03:24;;;;;;;5.47;2.85;;;;;;;25.62;64.83;99692.09;5042024;28;20043;-89
2022/06/05 05:05:50;;;;;;;7.70;4.20;;;;;;;25.34;64.35;99696.91;5049530;28;20554;-89
2022/06/05 05:08:15;;;;;;;4.13;3.08;;;;;;;25.13;63.88;99685.03;5048380;28;20043;-86
2022/06/05 05:10:42;;;;;;;4.97;2.92;;;;;;;24.85;66.12;99670.91;5047020;28;20033;-87
2022/06/05 05:13:07;;;;;;;8.65;2.63;;;;;;;25.23;63.24;99702.25;5047634;28;20025;-90
2022/06/05 05:15:33;;;;;;;3.47;2.17;;;;;;;24.86;62.73;99688.00;5048489;28;20040;-90
2022/06/05 05:17:58;;;;;;;4.00;2.55;;;;;;;24.85;63.24;99665.53;5049491;28;20033;-87
2022/06/05 05:20:27;;;;;;;3.92;3.03;;;;;;;25.22;62.01;99696.97;5050971;28;20028;-89
2022/06/05 05:22:52;;;;;;;2.63;1.35;;;;;;;25.42;61.74;99699.03;5051616;28;20032;-89
2022/06/05 05:25:18;;;;;;;3.88;2.08;;;;;;;25.63;59.92;99701.91;5050955;28;20107;-89
2022/06/05 05:27:44;;;;;;;3.90;2.20;;;;;;;25.43;59.83;99699.91;5051183;28;20461;-90
2022/06/05 05:30:11;;;;;;;6.20;2.85;;;;;;;25.22;59.78;99691.56;5047068;28;20048;-88
2022/06/05 05:32:37;;;;;;;8.10;2.67;;;;;;;25.28;60.22;99678.47;5031089;28;20030;-87
2022/06/05 05:35:04;;;;;;;3.83;1.92;;;;;;;25.69;58.36;99697.88;5047646;28;20419;-87
2022/06/05 05:37:29;;;;;;;3.55;2.20;;;;;;;25.45;59.48;99650.19;5050372;28;20873;-88
2022/06/05 05:42:39;;;;;;;5.07;3.05;;;;;;;25.86;59.02;99692.00;5047863;28;20048;-88
2022/06/05 05:45:06;;;;;;;4.32;2.70;;;;;;;25.83;59.09;99678.75;5039290;28;20034;-88
2022/06/05 05:47:32;;;;;;;4.68;2.50;;;;;;;25.74;59.66;99677.63;5036158;28;20086;-88
2022/06/05 05:50:06;;;;;;;8.45;3.17;;;;;;;25.87;58.69;99685.63;5052021;28;20029;-88
2022/06/05 05:52:32;;;;;;;10.30;4.13;;;;;;;26.25;57.68;99689.00;5050034;28;20098;-88
2022/06/05 05:54:57;;;;;;;5.30;3.65;;;;;;;26.51;56.58;99694.97;5048483;28;20499;-86
2022/06/05 05:57:24;;;;;;;3.97;2.20;;;;;;;26.68;55.92;99684.63;5047556;28;20113;-87
2022/06/05 05:59:50;;;;;;;48.83;8.57;;;;;;;26.97;55.39;99676.81;5049582;28;20708;-89
2022/06/05 06:02:21;;;;;;;4.07;3.38;;;;;;;27.37;55.83;99681.56;5051366;28;20031;-85
2022/06/05 06:04:48;;;;;;;4.22;2.22;;;;;;;27.40;52.48;99686.72;5050219;28;20116;-84
2022/06/05 06:07:14;;;;;;;2.10;1.55;;;;;;;27.14;53.44;99687.09;5050477;28;20032;-85
2022/06/05 06:09:40;;;;;;;2.83;2.30;;;;;;;27.07;52.25;99688.59;5050541;28;20021;-91
2022/06/05 06:12:07;;;;;;;4.22;3.20;;;;;;;27.14;51.36;99667.25;5050941;28;20035;-84
2022/06/05 06:14:33;;;;;;;2.47;1.75;;;;;;;27.23;51.50;99701.66;5050275;28;20068;-85
2022/06/05 06:16:59;;;;;;;2.92;1.80;;;;;;;26.82;51.71;99651.03;5049319;28;20048;-86
2022/06/05 06:19:24;;;;;;;4.68;2.53;;;;;;;27.32;51.56;99684.69;5050046;28;20025;-84
2022/06/05 06:21:50;;;;;;;3.45;2.08;;;;;;;27.49;51.13;99675.09;5051190;28;20082;-86
2022/06/05 06:24:15;;;;;;;2.63;1.95;;;;;;;27.95;51.07;99675.69;5051495;28;20032;-86
2022/06/05 06:26:41;;;;;;;5.55;3.50;;;;;;;28.31;51.96;99681.53;5048520;28;20487;-93
2022/06/05 06:29:08;;;;;;;3.75;2.47;;;;;;;28.19;52.04;99642.84;5047825;28;20032;-85
2022/06/05 06:31:35;;;;;;;3.72;2.53;;;;;;;28.58;51.75;99659.25;5052135;28;20021;-86
2022/06/05 06:34:01;;;;;;;4.53;2.72;;;;;;;28.38;50.33;99660.19;5050418;28;20047;-83
2022/06/05 06:36:27;;;;;;;4.68;2.60;;;;;;;28.75;50.88;99659.56;5049669;28;20040;-85
2022/06/05 06:38:53;;;;;;;3.10;2.28;;;;;;;28.64;48.41;99657.84;5049804;28;20171;-85
2022/06/05 06:41:20;;;;;;;7.70;2.58;;;;;;;28.82;49.46;99651.72;5049473;28;20029;-87
2022/06/05 06:43:47;;;;;;;5.43;2.90;;;;;;;28.89;49.57;99663.72;5050041;28;20025;-88
2022/06/05 06:46:13;;;;;;;3.33;2.17;;;;;;;28.92;47.29;99633.59;5049361;28;20036;-89
2022/06/05 06:48:39;;;;;;;7.93;3.08;;;;;;;28.83;47.35;99659.72;5050261;28;20025;-85
2022/06/05 06:51:06;;;;;;;4.10;2.65;;;;;;;28.84;48.03;99663.28;5047996;28;20055;-90
2022/06/05 06:53:33;;;;;;;2.90;2.08;;;;;;;28.58;48.09;99626.69;5048399;28;20124;-87
2022/06/05 06:55:59;;;;;;;5.32;2.45;;;;;;;28.73;49.17;99656.13;5048038;28;20037;-87
2022/06/05 06:58:25;;;;;;;4.82;2.72;;;;;;;28.88;47.34;99641.13;5048603;28;20532;-86
2022/06/05 07:00:50;;;;;;;4.57;2.90;;;;;;;29.07;47.90;99647.56;5048684;28;20032;-87
2022/06/05 07:03:16;;;;;;;3.30;2.10;;;;;;;29.53;48.01;99632.38;5047613;28;20494;-87
2022/06/05 07:05:42;;;;;;;4.30;2.42;;;;;;;30.16;47.33;99648.06;5044718;28;20057;-88
2022/06/05 07:08:10;;;;;;;4.57;2.70;;;;;;;29.76;45.86;99626.63;5051492;28;20029;-87
2022/06/05 07:10:37;;;;;;;4.00;2.20;;;;;;;29.83;45.88;99635.94;5046270;28;20086;-88
2022/06/05 07:13:03;;;;;;;2.70;2.05;;;;;;;29.76;45.80;99615.75;5048083;28;20491;-88
2022/06/05 07:15:34;;;;;;;5.20;2.53;;;;;;;30.14;48.63;99616.63;5047101;28;20571;-89
2022/06/05 07:18:07;;;;;;;2.65;2.00;;;;;;;30.59;46.24;99580.41;5032409;28;20033;-89
2022/06/05 07:20:35;;;;;;;4.45;2.60;;;;;;;30.17;45.93;99600.84;5028070;28;20048;-89
2022/06/05 07:23:02;;;;;;;3.35;2.47;;;;;;;30.16;45.26;99607.28;5046661;28;20044;-89
2022/06/05 07:25:28;;;;;;;2.58;1.85;;;;;;;29.91;45.99;99616.16;5051838;28;20029;-87
2022/06/05 07:27:54;;;;;;;4.10;2.78;;;;;;;29.90;45.87;99600.84;5066934;28;20036;-85
2022/06/05 07:30:20;;;;;;;3.50;2.90;;;;;;;29.80;46.29;99599.00;5060799;28;20029;-88
2022/06/05 07:32:47;;;;;;;3.63;2.28;;;;;;;30.05;47.16;99585.75;5054956;28;20050;-85
2022/06/05 07:35:13;;;;;;;2.92;2.17;;;;;;;30.47;48.26;99626.03;5049384;28;20029;-86
2022/06/05 07:37:39;;;;;;;3.15;2.33;;;;;;;30.49;45.69;99609.56;5048579;28;20094;-89
2022/06/05 07:40:05;;;;;;;2.10;1.55;;;;;;;30.93;44.78;99614.25;5048691;28;20147;-85
2022/06/05 07:42:31;;;;;;;3.15;1.70;;;;;;;30.82;44.47;99604.47;5049114;28;20045;-85
2022/06/05 07:44:56;;;;;;;5.72;2.67;;;;;;;30.82;45.07;99616.19;5055258;28;20036;-84
2022/06/05 07:47:22;;;;;;;9.65;2.60;;;;;;;30.79;45.22;99583.00;5066673;28;20612;-87
2022/06/05 07:49:47;;;;;;;5.22;2.30;;;;;;;30.84;43.77;99596.97;5055304;28;20037;-87
2022/06/05 07:54:57;;;;;;;4.13;2.30;;;;;;;31.06;43.54;99607.44;5048341;28;20132;-85
2022/06/05 07:57:22;;;;;;;3.65;2.38;;;;;;;31.30;43.96;99602.34;5049384;28;20876;-86
2022/06/05 07:59:49;;;;;;;4.40;2.65;;;;;;;31.57;43.26;99594.03;5049205;28;20074;-84
2022/06/05 08:02:19;;;;;;;5.50;2.45;;;;;;;31.90;42.09;99606.94;5049573;28;20079;-87
2022/06/05 08:08:06;;;;;;;4.00;3.13;;;;;;;31.21;42.67;99594.06;5047884;28;20508;-87
2022/06/05 08:10:32;;;;;;;2.97;2.05;;;;;;;31.93;43.82;99614.81;5050092;28;20025;-85
2022/06/05 08:12:57;;;;;;;5.72;3.47;;;;;;;31.90;42.05;99579.69;5062948;28;20483;-88
2022/06/05 08:15:23;;;;;;;4.10;2.42;;;;;;;31.76;41.76;99582.03;5049472;28;20064;-88
2022/06/05 08:17:48;;;;;;;4.85;2.75;;;;;;;31.81;42.28;99605.19;5063324;28;20060;-87
2022/06/05 08:20:14;;;;;;;7.63;3.42;;;;;;;32.10;40.96;99613.91;5049015;28;20518;-86
2022/06/05 08:22:39;;;;;;;3.50;2.17;;;;;;;32.60;41.58;99584.88;5048585;28;20029;-88
2022/06/05 08:25:06;;;;;;;3.42;2.30;;;;;;;32.54;41.15;99599.19;5052109;28;20036;-88
2022/06/05 08:27:31;;;;;;;4.25;2.25;;;;;;;32.63;41.08;99603.66;5048735;28;20037;-87
2022/06/05 08:29:57;;;;;;;3.75;2.80;;;;;;;32.54;40.44;99598.34;5044749;28;20040;-88
2022/06/05 08:32:28;;;;;;;5.55;1.95;;;;;;;32.57;42.05;99601.59;5041932;28;20058;-87
2022/06/05 08:34:53;;;;;;;3.00;1.85;;;;;;;32.83;42.34;99589.72;5045687;28;20029;-89
2022/06/05 08:43:33;;;;;;;4.00;2.17;;;;;;;32.82;38.66;99571.63;5047567;28;20059;-86
2022/06/05 08:46:02;;;;;;;;;;;;;;;33.08;38.60;99596.03;5027630;28;20040;-89
2022/06/05 08:48:47;;;;;;;7.10;3.38;;;;;;;32.85;39.13;99565.81;5047919;28;19913;-86
2022/06/05 08:51:19;;;;;;;3.70;2.67;;;;;;;33.67;38.54;99593.06;5046727;28;20111;-87
2022/06/05 08:54:02;;;;;;;4.93;2.65;;;;;;;33.41;37.37;99597.91;5037676;28;20051;-89
2022/06/05 08:56:54;;;;;;;4.10;2.75;;;;;;;33.65;41.23;99569.69;5028380;28;20076;-88
2022/06/05 08:59:29;;;;;;;4.50;2.05;;;;;;;33.64;37.79;99573.44;5022775;28;20051;-92
2022/06/05 09:02:20;;;;;;;4.47;3.13;;;;;;;33.28;38.79;99593.00;5029412;28;20037;-86
2022/06/05 09:04:51;;;;;;;2.55;2.05;;;;;;;33.51;39.03;99584.91;5028908;28;20041;-86
2022/06/05 09:07:22;;;;;;;3.70;2.33;;;;;;;33.75;38.63;99558.56;5040132;28;20033;-87
2022/06/05 09:10:13;;;;;;;6.80;3.45;;;;;;;34.08;42.19;99575.69;5048998;28;20033;-88
2022/06/05 09:12:54;;;;;;;3.13;2.20;;;;;;;33.77;38.24;99573.75;5047958;28;20033;-86
2022/06/05 09:15:35;;;;;;;3.00;2.47;;;;;;;33.89;39.96;99555.94;5040526;28;20454;-91
2022/06/05 09:18:08;;;;;;;7.13;4.03;;;;;;;34.42;39.68;99563.56;5027382;28;20041;-88
2022/06/05 09:20:49;;;;;;;2.78;1.90;;;;;;;34.44;36.75;99569.69;5027385;28;20041;-87
2022/06/05 09:23:41;;;;;;;3.58;2.25;;;;;;;34.24;39.96;99572.03;5029157;28;20033;-88
2022/06/05 09:26:33;;;;;;;4.30;2.55;;;;;;;34.07;37.64;99563.03;5027655;28;20367;-86
2022/06/05 09:29:10;;;;;;;3.38;2.25;;;;;;;34.33;35.70;99559.16;5042727;28;20141;-86
2022/06/05 09:31:50;;;;;;;4.32;2.28;;;;;;;34.55;36.50;99562.94;5047057;28;20515;-86
2022/06/05 09:34:26;;;;;;;5.45;2.60;;;;;;;33.93;36.41;99547.38;5029603;28;20080;-85
2022/06/05 09:37:16;;;;;;;3.63;2.30;;;;;;;33.79;35.32;99538.88;5027734;28;20128;-89
2022/06/05 09:40:04;;;;;;;3.88;2.17;;;;;;;33.96;36.60;99544.28;5029386;28;20064;-85
2022/06/05 09:42:45;;;;;;;3.47;2.58;;;;;;;34.16;38.46;99544.69;5029431;28;20029;-86
2022/06/05 09:45:37;;;;;;;3.90;2.53;;;;;;;34.22;36.60;99527.56;5043747;28;20052;-85
2022/06/05 09:48:35;;;;;;;4.40;2.90;;;;;;;34.22;33.93;99543.97;5049195;28;20118;-87
2022/06/05 09:51:01;;;;;;;4.55;2.42;;;;;;;34.70;32.36;99511.81;5049313;28;20549;-85
2022/06/05 09:53:31;;;;;;;4.28;2.30;;;;;;;34.83;33.24;99511.22;5047541;28;20514;-85
2022/06/05 09:56:21;;;;;;;3.33;2.47;;;;;;;35.39;32.05;99524.59;5049548;28;20471;-87
2022/06/05 09:59:07;;;;;;;4.07;2.15;;;;;;;35.52;34.88;99488.28;5049452;28;20040;-87
2022/06/05 10:01:47;;;;;;;2.90;2.00;;;;;;;35.96;35.30;99492.00;5049204;28;20098;-86
2022/06/05 10:04:12;;;;;;;5.82;2.58;;;;;;;36.13;34.51;99504.47;5050354;28;20032;-86
2022/06/05 10:06:47;;;;;;;4.30;2.63;;;;;;;36.07;32.80;99497.03;5051293;28;20051;-87
2022/06/05 10:09:14;;;;;;;;;;;;;;;36.09;32.43;99499.56;5052865;28;20029;-85
2022/06/05 10:11:52;;;;;;;2.88;1.90;;;;;;;35.37;32.96;99493.75;5053056;28;19908;-85
2022/06/05 10:14:47;;;;;;;3.28;2.33;;;;;;;35.15;32.21;99501.84;5051529;28;20086;-84
2022/06/05 10:17:31;;;;;;;3.90;2.25;;;;;;;35.48;31.46;99503.41;5032785;28;20032;-84
2022/06/05 10:20:24;;;;;;;2.35;1.83;;;;;;;35.73;31.43;99500.34;5032008;28;20151;-85
2022/06/05 10:23:13;;;;;;;4.43;1.60;;;;;;;35.62;34.21;99480.63;5032695;28;20030;-87
2022/06/05 10:25:57;;;;;;;2.75;2.08;;;;;;;35.93;29.76;99476.81;5032540;28;20061;-85
2022/06/05 10:28:27;;;;;;;4.05;2.63;;;;;;;35.77;30.89;99468.78;5032491;28;20108;-86
2022/06/05 10:30:55;;;;;;;4.38;2.13;;;;;;;35.72;30.87;99466.59;5032345;28;20503;-84
2022/06/05 10:33:27;;;;;;;5.13;2.10;;;;;;;35.65;29.56;99465.66;5049308;28;20082;-85
2022/06/05 10:36:10;;;;;;;6.40;3.05;;;;;;;35.47;34.18;99466.91;5052167;28;20028;-85
2022/06/05 10:39:06;;;;;;;2.60;2.07;;;;;;;35.23;29.45;99458.94;5051898;28;20026;-84
2022/06/05 10:41:52;;;;;;;2.40;1.70;;;;;;;35.28;30.14;99464.72;5052154;28;20037;-89
2022/06/05 10:44:30;;;;;;;4.07;2.60;;;;;;;35.34;29.36;99453.00;5051984;28;20116;-84
2022/06/05 10:47:19;;;;;;;3.08;1.85;;;;;;;35.34;28.84;99444.78;5051274;28;20033;-92
2022/06/05 10:49:54;;;;;;;2.83;1.60;;;;;;;35.28;30.03;99453.75;5051659;28;20029;-85
2022/06/05 10:52:32;;;;;;;3.53;2.20;;;;;;;35.46;29.57;99439.69;5049370;28;20477;-85
2022/06/05 10:55:20;;;;;;;1.67;1.30;;;;;;;35.60;30.40;99444.28;5051377;28;20049;-87
2022/06/05 10:57:54;;;;;;;2.05;1.17;;;;;;;35.74;27.98;99428.84;5050983;28;20047;-86
2022/06/05 11:00:23;;;;;;;4.13;1.92;;;;;;;35.53;31.82;99437.00;5050426;28;20036;-86
2022/06/05 11:03:14;;;;;;;3.40;1.80;;;;;;;35.25;28.35;99415.75;5050577;28;20082;-86
2022/06/05 11:06:14;;;;;;;1.65;1.35;;;;;;;35.45;28.43;99430.63;5049398;28;20036;-86
2022/06/05 11:09:07;;;;;;;2.33;1.70;;;;;;;35.28;27.06;99401.69;5050369;28;20043;-85
2022/06/05 11:15:00;;;;;;;4.30;2.20;;;;;;;35.43;29.34;99415.38;5050462;28;20132;-85
2022/06/05 11:18:05;;;;;;;2.53;1.45;;;;;;;35.31;30.04;99418.63;5048435;28;20041;-88
2022/06/05 11:20:31;;;;;;;1.70;1.33;;;;;;;35.22;27.67;99410.63;5048687;28;20136;-86
2022/06/05 11:23:13;;;;;;;3.63;1.20;;;;;;;35.06;30.38;99415.28;5049963;28;20112;-85
2022/06/05 11:26:04;;;;;;;3.58;2.15;;;;;;;34.91;29.43;99418.03;5049637;28;20033;-86
2022/06/05 11:28:32;;;;;;;2.17;1.33;;;;;;;34.55;29.39;99409.63;5049348;28;20067;-87
2022/06/05 11:31:13;;;;;;;2.85;2.25;;;;;;;34.79;31.07;99408.56;5048800;28;20114;-86
2022/06/05 11:33:48;;;;;;;9.43;2.25;;;;;;;34.25;30.08;99384.91;5029408;28;20069;-87
2022/06/05 11:36:23;;;;;;;3.30;2.75;;;;;;;34.17;29.29;99404.97;5029099;28;20041;-90
2022/06/05 11:39:12;;;;;;;3.20;1.50;;;;;;;34.38;32.87;99384.28;5029323;28;20495;-86
2022/06/05 11:42:00;;;;;;;2.30;1.35;;;;;;;34.97;28.04;99408.19;5028038;28;20068;-85
2022/06/05 11:44:46;;;;;;;3.03;1.83;;;;;;;35.19;28.86;99389.09;5037151;28;20091;-85
2022/06/05 11:47:39;;;;;;;2.28;1.48;;;;;;;35.07;27.86;99397.81;5050016;28;20025;-85
2022/06/05 11:50:24;;;;;;;2.30;1.63;;;;;;;34.88;28.61;99412.91;5050180;28;20039;-84
2022/06/05 11:53:07;;;;;;;4.45;1.92;;;;;;;34.69;29.28;99407.94;5044051;28;20120;-86
2022/06/05 11:55:56;;;;;;;1.98;1.33;;;;;;;34.38;30.87;99417.97;5048979;28;20837;-83
2022/06/05 11:58:24;;;;;;;1.90;1.27;;;;;;;34.64;30.95;99413.13;5049363;28;20032;-84
2022/06/05 12:00:56;;;;;;;2.30;1.63;;;;;;;34.81;30.17;99381.81;5049563;28;20514;-86
2022/06/05 12:03:33;;;;;;;2.72;1.88;;;;;;;35.08;28.13;99360.28;5049048;28;20024;-84
2022/06/05 12:06:14;;;;;;;2.25;1.55;;;;;;;35.19;28.23;99386.34;5048864;28;20029;-85
2022/06/05 12:08:47;;;;;;;2.40;1.70;;;;;;;34.92;27.51;99377.78;5048690;28;20060;-85
2022/06/05 12:11:41;;;;;;;3.88;1.83;;;;;;;35.27;28.47;99386.31;5048566;28;20052;-88
2022/06/05 12:14:12;;;;;;;3.10;1.80;;;;;;;35.39;27.65;99389.38;5048865;28;20119;-85
2022/06/05 12:16:54;;;;;;;1.98;1.35;;;;;;;35.33;27.76;99382.78;5048760;28;20028;-83
2022/06/05 12:19:27;;;;;;;3.10;1.95;;;;;;;35.25;28.01;99388.31;5048806;28;20503;-83
2022/06/05 12:22:14;;;;;;;3.25;1.42;;;;;;;35.58;28.00;99355.03;5048208;28;20449;-85